createdAt,value
2018-11-21T00:00:04.151Z,1.90
2018-11-21T00:02:32.738Z,1.80
2018-11-21T00:05:01.152Z,1.60
2018-11-21T00:07:34.357Z,1.60
2018-11-21T00:10:02.855Z,1.70
2018-11-21T00:12:31.238Z,1.70
2018-11-21T00:14:59.881Z,1.70
2018-11-21T00:17:28.123Z,1.70
2018-11-21T00:19:56.133Z,1.70
2018-11-21T00:22:24.548Z,1.60
2018-11-21T00:24:53.091Z,1.70
2018-11-21T00:27:22.229Z,1.70
2018-11-21T00:29:50.571Z,1.60
2018-11-21T00:32:22.929Z,1.60
2018-11-21T00:34:52.001Z,1.70
2018-11-21T00:37:21.199Z,1.70
2018-11-21T00:39:49.643Z,1.70
2018-11-21T00:42:17.701Z,1.70
2018-11-21T00:44:45.797Z,1.60
2018-11-21T00:47:14.401Z,1.60
2018-11-21T00:49:42.418Z,1.50
2018-11-21T00:52:10.691Z,1.60
2018-11-21T00:54:38.690Z,1.70
2018-11-21T00:57:07.457Z,1.60
2018-11-21T00:59:35.866Z,1.70
2018-11-21T01:02:03.913Z,1.60
2018-11-21T01:04:32.864Z,1.60
2018-11-21T01:07:01.688Z,1.60
2018-11-21T01:09:29.941Z,1.60
2018-11-21T01:11:58.238Z,1.60
2018-11-21T01:14:26.812Z,1.60
2018-11-21T01:16:55.097Z,1.60
2018-11-21T01:19:23.102Z,1.50
2018-11-21T01:21:51.883Z,1.50
2018-11-21T01:24:20.387Z,1.50
2018-11-21T01:26:48.391Z,1.50
2018-11-21T01:29:16.804Z,1.50
2018-11-21T01:31:45.144Z,1.40
2018-11-21T01:34:13.147Z,1.50
2018-11-21T01:36:41.487Z,1.50
2018-11-21T01:39:10.480Z,1.50
2018-11-21T01:41:38.692Z,1.60
2018-11-21T01:44:07.361Z,1.60
2018-11-21T01:46:35.955Z,1.70
2018-11-21T01:49:03.961Z,1.60
2018-11-21T01:51:33.096Z,1.50
2018-11-21T01:54:01.431Z,1.60
2018-11-21T01:56:29.712Z,1.60
2018-11-21T01:58:57.957Z,1.50
2018-11-21T02:01:26.251Z,1.50
2018-11-21T02:03:54.579Z,1.40
2018-11-21T02:06:22.599Z,1.50
2018-11-21T02:08:52.147Z,1.50
2018-11-21T02:11:20.476Z,1.50
2018-11-21T02:13:48.711Z,1.50
2018-11-21T02:16:17.174Z,1.50
2018-11-21T02:18:45.183Z,1.50
2018-11-21T02:21:13.472Z,1.40
2018-11-21T02:23:41.864Z,1.50
2018-11-21T02:26:10.171Z,1.60
2018-11-21T02:28:38.193Z,1.50
2018-11-21T02:31:06.251Z,1.50
2018-11-21T02:33:34.536Z,1.50
2018-11-21T02:36:02.877Z,1.50
2018-11-21T02:38:30.941Z,1.60
2018-11-21T02:41:00.415Z,1.70
2018-11-21T02:43:28.461Z,1.60
2018-11-21T02:45:56.821Z,1.60
2018-11-21T02:48:24.976Z,1.60
2018-11-21T02:50:53.070Z,1.40
2018-11-21T02:53:21.192Z,1.30
2018-11-21T02:55:49.634Z,1.30
2018-11-21T02:58:18.016Z,1.40
2018-11-21T03:00:46.069Z,1.30
2018-11-21T03:03:14.122Z,1.30
2018-11-21T03:05:42.181Z,1.30
2018-11-21T03:08:10.246Z,1.30
2018-11-21T03:10:38.571Z,1.20
2018-11-21T03:13:07.075Z,1.30
2018-11-21T03:15:35.129Z,1.40
2018-11-21T03:18:03.417Z,1.40
2018-11-21T03:20:31.861Z,1.30
2018-11-21T03:22:59.875Z,1.30
2018-11-21T03:25:27.864Z,1.30
2018-11-21T03:27:56.527Z,1.30
2018-11-21T03:30:24.848Z,1.30
2018-11-21T03:32:53.139Z,1.30
2018-11-21T03:35:21.796Z,1.20
2018-11-21T03:37:50.050Z,1.30
2018-11-21T03:40:18.155Z,1.20
2018-11-21T03:42:46.228Z,1.20
2018-11-21T03:45:14.254Z,1.20
2018-11-21T03:47:42.344Z,1.20
2018-11-21T03:50:11.636Z,1.20
2018-11-21T03:52:39.707Z,1.10
2018-11-21T03:55:08.524Z,1.20
2018-11-21T03:57:37.282Z,1.20
2018-11-21T04:00:07.763Z,1.20
2018-11-21T04:02:35.783Z,1.20
2018-11-21T04:05:04.248Z,1.20
2018-11-21T04:07:32.636Z,1.30
2018-11-21T04:10:00.719Z,1.30
2018-11-21T04:12:48.501Z,1.30
2018-11-21T04:15:16.507Z,1.30
2018-11-21T04:17:44.522Z,1.30
2018-11-21T04:20:12.593Z,1.30
2018-11-21T04:22:40.610Z,1.30
2018-11-21T04:25:10.051Z,1.40
2018-11-21T04:27:38.188Z,1.50
2018-11-21T04:30:07.825Z,1.50
2018-11-21T04:32:35.848Z,1.30
2018-11-21T04:35:04.295Z,1.30
2018-11-21T04:37:32.354Z,1.30
2018-11-21T04:40:00.414Z,1.20
2018-11-21T04:42:28.794Z,1.30
2018-11-21T04:44:56.963Z,1.40
2018-11-21T04:47:25.265Z,1.50
2018-11-21T04:49:53.618Z,1.40
2018-11-21T04:52:21.646Z,1.30
2018-11-21T04:54:49.654Z,1.30
2018-11-21T04:57:18.114Z,1.30
2018-11-21T04:59:46.183Z,1.30
2018-11-21T05:02:14.183Z,1.20
2018-11-21T05:04:42.721Z,1.20
2018-11-21T05:07:11.132Z,1.20
2018-11-21T05:09:39.201Z,1.20
2018-11-21T05:12:07.201Z,1.20
2018-11-21T05:14:35.733Z,1.10
2018-11-21T05:17:03.748Z,1.20
2018-11-21T05:19:32.446Z,1.30
2018-11-21T05:22:00.515Z,1.30
2018-11-21T05:24:28.548Z,1.30
2018-11-21T05:26:56.600Z,1.20
2018-11-21T05:29:24.693Z,1.20
2018-11-21T05:31:52.739Z,1.30
2018-11-21T05:34:20.810Z,1.20
2018-11-21T05:36:48.940Z,1.20
2018-11-21T05:39:16.948Z,1.20
2018-11-21T05:41:44.969Z,1.10
2018-11-21T05:44:13.260Z,1.10
2018-11-21T05:46:41.278Z,1.10
2018-11-21T05:49:09.330Z,1.20
2018-11-21T05:51:37.398Z,1.20
2018-11-21T05:54:05.662Z,1.20
2018-11-21T05:56:33.683Z,1.20
2018-11-21T05:59:01.840Z,1.30
2018-11-21T06:01:30.451Z,1.20
2018-11-21T06:03:58.527Z,1.10
2018-11-21T06:06:26.531Z,1.00
2018-11-21T06:08:54.802Z,1.00
2018-11-21T06:11:23.151Z,1.10
2018-11-21T06:13:51.439Z,1.20
2018-11-21T06:16:19.679Z,1.20
2018-11-21T06:18:48.133Z,1.20
2018-11-21T06:21:16.204Z,1.30
2018-11-21T06:23:44.232Z,1.30
2018-11-21T06:26:12.693Z,1.30
2018-11-21T06:28:40.886Z,1.40
2018-11-21T06:31:08.939Z,1.30
2018-11-21T06:33:37.310Z,1.30
2018-11-21T06:36:05.322Z,1.20
2018-11-21T06:38:33.343Z,1.20
2018-11-21T06:41:01.706Z,1.30
2018-11-21T06:43:29.711Z,1.30
2018-11-21T06:45:57.717Z,1.20
2018-11-21T06:48:25.846Z,1.20
2018-11-21T06:50:53.853Z,1.10
2018-11-21T06:53:21.936Z,1.20
2018-11-21T06:55:49.995Z,1.20
2018-11-21T06:58:17.994Z,1.10
2018-11-21T07:00:46.019Z,1.10
2018-11-21T07:03:14.117Z,1.00
2018-11-21T07:05:42.113Z,1.00
2018-11-21T07:08:10.179Z,1.00
2018-11-21T07:10:38.196Z,1.00
2018-11-21T07:13:10.994Z,1.00
2018-11-21T07:15:34.598Z,1.10
2018-11-21T07:18:02.624Z,1.10
2018-11-21T07:20:30.647Z,1.20
2018-11-21T07:22:58.983Z,1.20
2018-11-21T07:25:27.274Z,1.10
2018-11-21T07:27:55.326Z,1.10
2018-11-21T07:30:23.732Z,1.10
2018-11-21T07:32:52.025Z,1.10
2018-11-21T07:35:20.325Z,1.10
2018-11-21T07:37:48.815Z,1.10
2018-11-21T07:40:16.832Z,1.10
2018-11-21T07:42:44.943Z,1.10
2018-11-21T07:45:14.359Z,1.20
2018-11-21T07:47:43.045Z,1.10
2018-11-21T07:50:13.787Z,1.10
2018-11-21T07:52:42.223Z,1.20
2018-11-21T07:55:11.099Z,1.20
2018-11-21T07:57:40.567Z,1.20
2018-11-21T08:01:13.825Z,1.20
2018-11-21T08:04:07.310Z,1.10
2018-11-21T08:06:47.537Z,1.10
2018-11-21T08:09:23.752Z,1.10
2018-11-21T08:12:09.679Z,1.10
2018-11-21T08:14:56.931Z,1.10
2018-11-21T08:17:59.625Z,1.10
2018-11-21T08:20:45.770Z,1.20
2018-11-21T08:23:35.275Z,1.20
2018-11-21T08:26:21.259Z,1.10
2018-11-21T08:28:49.330Z,1.10
2018-11-21T08:31:18.023Z,1.00
2018-11-21T08:33:46.335Z,1.10
2018-11-21T08:36:14.350Z,1.10
2018-11-21T08:38:42.424Z,1.10
2018-11-21T08:41:10.501Z,1.10
2018-11-21T08:43:38.499Z,1.00
2018-11-21T08:46:07.596Z,1.00
2018-11-21T08:48:36.150Z,1.00
2018-11-21T08:51:04.630Z,1.10
2018-11-21T08:53:32.621Z,1.20
2018-11-21T08:56:00.703Z,1.10
2018-11-21T08:58:29.046Z,1.10
2018-11-21T09:00:57.085Z,1.00
2018-11-21T09:03:25.197Z,1.00
2018-11-21T09:05:53.275Z,0.90
2018-11-21T09:08:21.523Z,0.90
2018-11-21T09:10:49.782Z,1.00
2018-11-21T09:13:17.879Z,1.00
2018-11-21T09:15:45.942Z,1.10
2018-11-21T09:18:13.981Z,1.10
2018-11-21T09:20:41.994Z,1.10
2018-11-21T09:23:10.070Z,1.10
2018-11-21T09:25:38.084Z,1.20
2018-11-21T09:28:06.400Z,1.20
2018-11-21T09:30:34.782Z,1.30
2018-11-21T09:33:03.052Z,1.20
2018-11-21T09:35:50.683Z,1.20
2018-11-21T09:38:18.704Z,1.30
2018-11-21T09:40:47.011Z,1.20
2018-11-21T09:43:15.585Z,1.30
2018-11-21T09:45:43.634Z,1.30
2018-11-21T09:48:11.883Z,1.40
2018-11-21T09:50:40.124Z,1.40
2018-11-21T09:53:08.188Z,1.30
2018-11-21T09:55:40.405Z,1.40
2018-11-21T09:58:04.308Z,1.30
2018-11-21T10:01:09.170Z,1.30
2018-11-21T10:03:38.389Z,1.30
2018-11-21T10:06:11.748Z,1.30
2018-11-21T10:08:53.554Z,1.30
2018-11-21T10:11:21.884Z,1.30
2018-11-21T10:13:50.124Z,1.30
2018-11-21T10:16:18.131Z,1.40
2018-11-21T10:18:47.976Z,1.40
2018-11-21T10:21:17.981Z,1.40
2018-11-21T10:23:46.522Z,1.50
2018-11-21T10:26:14.786Z,1.60
2018-11-21T10:28:43.337Z,1.70
2018-11-21T10:31:11.451Z,1.70
2018-11-21T10:33:39.463Z,1.60
2018-11-21T10:36:07.552Z,1.60
2018-11-21T10:38:35.937Z,1.60
2018-11-21T10:41:04.622Z,1.60
2018-11-21T10:43:33.492Z,1.60
2018-11-21T10:46:01.875Z,1.50
2018-11-21T10:48:29.920Z,1.40
2018-11-21T10:50:57.964Z,1.50
2018-11-21T10:53:26.181Z,1.60
2018-11-21T10:55:54.451Z,1.70
2018-11-21T10:58:22.484Z,1.60
2018-11-21T11:01:08.606Z,1.50
2018-11-21T11:04:01.658Z,1.60
2018-11-21T11:06:47.890Z,1.60
2018-11-21T11:09:43.460Z,1.60
2018-11-21T11:12:25.543Z,1.60
2018-11-21T11:15:11.645Z,1.70
2018-11-21T11:17:59.633Z,1.80
2018-11-21T11:20:36.379Z,1.90
2018-11-21T11:23:35.032Z,1.90
2018-11-21T11:26:22.573Z,1.90
2018-11-21T11:29:08.703Z,1.80
2018-11-21T11:31:58.120Z,1.70
2018-11-21T11:34:48.936Z,1.80
2018-11-21T11:37:34.794Z,1.90
2018-11-21T11:40:20.773Z,1.90
2018-11-21T11:43:00.972Z,1.90
2018-11-21T11:45:51.539Z,1.90
2018-11-21T11:48:34.589Z,1.90
2018-11-21T11:51:12.675Z,2.00
2018-11-21T11:53:54.704Z,2.00
2018-11-21T11:56:40.973Z,2.00
2018-11-21T11:59:36.205Z,1.90
2018-11-21T12:02:18.972Z,1.90
2018-11-21T12:05:11.683Z,1.90
2018-11-21T12:07:54.804Z,1.80
2018-11-21T12:10:36.273Z,1.80
2018-11-21T12:13:22.724Z,1.90
2018-11-21T12:16:03.617Z,1.90
2018-11-21T12:18:49.995Z,1.80
2018-11-21T12:21:36.119Z,1.80
2018-11-21T12:24:12.950Z,1.70
2018-11-21T12:26:57.251Z,1.60
2018-11-21T12:29:59.700Z,1.60
2018-11-21T12:32:39.319Z,1.60
2018-11-21T12:35:25.653Z,1.70
2018-11-21T12:38:04.911Z,1.60
2018-11-21T12:40:46.827Z,1.60
